sensor_id;sensor_type;location;lat;lon;timestamp;P1;durP1;ratioP1;P2;durP2;ratioP2
59424;SDS011;45231;44.826;20.312;2022-10-13T00:01:18;84.18;;;59.20;;
59424;SDS011;45231;44.826;20.312;2022-10-13T00:03:45;82.72;;;59.85;;
59424;SDS011;45231;44.826;20.312;2022-10-13T00:06:12;90.63;;;60.22;;
59424;SDS011;45231;44.826;20.312;2022-10-13T00:08:38;86.47;;;60.70;;
59424;SDS011;45231;44.826;20.312;2022-10-13T00:11:12;86.55;;;62.00;;
59424;SDS011;45231;44.826;20.312;2022-10-13T00:13:38;92.93;;;64.10;;
59424;SDS011;45231;44.826;20.312;2022-10-13T00:16:05;89.00;;;62.90;;
59424;SDS011;45231;44.826;20.312;2022-10-13T00:18:31;94.03;;;62.92;;
59424;SDS011;45231;44.826;20.312;2022-10-13T00:20:57;87.07;;;61.13;;
59424;SDS011;45231;44.826;20.312;2022-10-13T00:23:23;82.90;;;60.92;;
59424;SDS011;45231;44.826;20.312;2022-10-13T00:25:49;87.78;;;61.63;;
59424;SDS011;45231;44.826;20.312;2022-10-13T00:28:16;90.43;;;62.20;;
59424;SDS011;45231;44.826;20.312;2022-10-13T00:30:43;88.60;;;63.53;;
59424;SDS011;45231;44.826;20.312;2022-10-13T00:33:09;85.13;;;60.53;;
59424;SDS011;45231;44.826;20.312;2022-10-13T00:35:39;92.07;;;61.95;;
59424;SDS011;45231;44.826;20.312;2022-10-13T00:38:06;91.53;;;62.13;;
59424;SDS011;45231;44.826;20.312;2022-10-13T00:40:32;87.80;;;59.75;;
59424;SDS011;45231;44.826;20.312;2022-10-13T00:42:58;90.18;;;62.95;;
59424;SDS011;45231;44.826;20.312;2022-10-13T00:45:27;87.65;;;60.67;;
59424;SDS011;45231;44.826;20.312;2022-10-13T00:47:57;86.05;;;59.17;;
59424;SDS011;45231;44.826;20.312;2022-10-13T00:50:29;82.57;;;58.92;;
59424;SDS011;45231;44.826;20.312;2022-10-13T00:52:56;82.00;;;57.53;;
59424;SDS011;45231;44.826;20.312;2022-10-13T00:55:26;82.80;;;56.28;;
59424;SDS011;45231;44.826;20.312;2022-10-13T00:57:54;75.10;;;53.88;;
59424;SDS011;45231;44.826;20.312;2022-10-13T01:00:22;75.80;;;54.55;;
59424;SDS011;45231;44.826;20.312;2022-10-13T01:02:49;74.05;;;51.88;;
59424;SDS011;45231;44.826;20.312;2022-10-13T01:05:20;70.82;;;52.58;;
59424;SDS011;45231;44.826;20.312;2022-10-13T01:07:47;72.63;;;52.13;;
59424;SDS011;45231;44.826;20.312;2022-10-13T01:10:15;69.30;;;52.35;;
59424;SDS011;45231;44.826;20.312;2022-10-13T01:12:51;71.88;;;51.10;;
59424;SDS011;45231;44.826;20.312;2022-10-13T01:30:54;62.15;;;47.17;;
59424;SDS011;45231;44.826;20.312;2022-10-13T01:33:35;69.72;;;49.65;;
59424;SDS011;45231;44.826;20.312;2022-10-13T01:36:10;62.55;;;46.95;;
59424;SDS011;45231;44.826;20.312;2022-10-13T01:38:54;65.05;;;47.72;;
59424;SDS011;45231;44.826;20.312;2022-10-13T01:41:25;68.45;;;46.83;;
59424;SDS011;45231;44.826;20.312;2022-10-13T01:43:59;60.13;;;45.00;;
59424;SDS011;45231;44.826;20.312;2022-10-13T01:46:27;58.50;;;42.97;;
59424;SDS011;45231;44.826;20.312;2022-10-13T01:48:55;63.20;;;45.03;;
59424;SDS011;45231;44.826;20.312;2022-10-13T01:51:23;58.35;;;43.65;;
59424;SDS011;45231;44.826;20.312;2022-10-13T01:53:50;59.42;;;43.50;;
59424;SDS011;45231;44.826;20.312;2022-10-13T01:56:16;63.67;;;43.28;;
59424;SDS011;45231;44.826;20.312;2022-10-13T01:58:42;59.90;;;43.42;;
59424;SDS011;45231;44.826;20.312;2022-10-13T02:03:56;58.60;;;42.08;;
59424;SDS011;45231;44.826;20.312;2022-10-13T02:08:56;58.85;;;40.92;;
59424;SDS011;45231;44.826;20.312;2022-10-13T02:11:24;57.40;;;40.80;;
59424;SDS011;45231;44.826;20.312;2022-10-13T02:14:15;57.10;;;41.08;;
59424;SDS011;45231;44.826;20.312;2022-10-13T02:16:43;60.78;;;41.28;;
59424;SDS011;45231;44.826;20.312;2022-10-13T02:19:12;54.88;;;40.50;;
59424;SDS011;45231;44.826;20.312;2022-10-13T02:21:39;51.47;;;39.50;;
59424;SDS011;45231;44.826;20.312;2022-10-13T02:24:08;53.10;;;38.70;;
59424;SDS011;45231;44.826;20.312;2022-10-13T02:26:35;54.60;;;39.40;;
59424;SDS011;45231;44.826;20.312;2022-10-13T02:29:15;49.13;;;37.83;;
59424;SDS011;45231;44.826;20.312;2022-10-13T02:31:41;52.83;;;37.80;;
59424;SDS011;45231;44.826;20.312;2022-10-13T02:34:08;51.42;;;38.80;;
59424;SDS011;45231;44.826;20.312;2022-10-13T02:36:34;51.30;;;38.47;;
59424;SDS011;45231;44.826;20.312;2022-10-13T02:39:07;57.72;;;42.83;;
59424;SDS011;45231;44.826;20.312;2022-10-13T02:41:34;55.88;;;41.42;;
59424;SDS011;45231;44.826;20.312;2022-10-13T02:44:00;59.33;;;42.78;;
59424;SDS011;45231;44.826;20.312;2022-10-13T02:46:26;56.13;;;40.55;;
59424;SDS011;45231;44.826;20.312;2022-10-13T02:48:52;54.60;;;39.70;;
59424;SDS011;45231;44.826;20.312;2022-10-13T02:51:18;54.70;;;40.92;;
59424;SDS011;45231;44.826;20.312;2022-10-13T02:53:44;53.58;;;39.95;;
59424;SDS011;45231;44.826;20.312;2022-10-13T02:56:10;56.15;;;42.15;;
59424;SDS011;45231;44.826;20.312;2022-10-13T02:58:36;58.08;;;41.85;;
59424;SDS011;45231;44.826;20.312;2022-10-13T03:01:09;58.38;;;41.75;;
59424;SDS011;45231;44.826;20.312;2022-10-13T03:03:36;58.15;;;43.58;;
59424;SDS011;45231;44.826;20.312;2022-10-13T03:06:02;60.95;;;44.53;;
59424;SDS011;45231;44.826;20.312;2022-10-13T03:08:30;61.15;;;42.38;;
59424;SDS011;45231;44.826;20.312;2022-10-13T03:10:56;62.33;;;44.38;;
59424;SDS011;45231;44.826;20.312;2022-10-13T03:13:22;56.05;;;42.53;;
59424;SDS011;45231;44.826;20.312;2022-10-13T03:15:48;54.58;;;41.53;;
59424;SDS011;45231;44.826;20.312;2022-10-13T03:18:14;59.33;;;42.25;;
59424;SDS011;45231;44.826;20.312;2022-10-13T03:20:44;57.85;;;43.13;;
59424;SDS011;45231;44.826;20.312;2022-10-13T03:23:10;60.17;;;42.85;;
59424;SDS011;45231;44.826;20.312;2022-10-13T03:25:36;53.75;;;40.35;;
59424;SDS011;45231;44.826;20.312;2022-10-13T03:28:02;51.88;;;39.03;;
59424;SDS011;45231;44.826;20.312;2022-10-13T03:30:28;53.63;;;41.67;;
59424;SDS011;45231;44.826;20.312;2022-10-13T03:32:54;53.60;;;40.08;;
59424;SDS011;45231;44.826;20.312;2022-10-13T03:35:20;59.30;;;40.75;;
59424;SDS011;45231;44.826;20.312;2022-10-13T03:37:46;65.65;;;43.75;;
59424;SDS011;45231;44.826;20.312;2022-10-13T03:40:12;65.50;;;45.95;;
59424;SDS011;45231;44.826;20.312;2022-10-13T03:42:38;72.68;;;51.60;;
59424;SDS011;45231;44.826;20.312;2022-10-13T03:45:05;85.28;;;58.03;;
59424;SDS011;45231;44.826;20.312;2022-10-13T03:47:35;95.72;;;61.53;;
59424;SDS011;45231;44.826;20.312;2022-10-13T03:50:02;103.85;;;64.03;;
59424;SDS011;45231;44.826;20.312;2022-10-13T03:54:54;87.30;;;56.30;;
59424;SDS011;45231;44.826;20.312;2022-10-13T03:57:20;109.93;;;64.40;;
59424;SDS011;45231;44.826;20.312;2022-10-13T03:59:46;118.72;;;68.65;;
59424;SDS011;45231;44.826;20.312;2022-10-13T04:02:12;119.43;;;67.10;;
59424;SDS011;45231;44.826;20.312;2022-10-13T04:04:38;98.00;;;58.33;;
59424;SDS011;45231;44.826;20.312;2022-10-13T04:07:05;107.18;;;60.75;;
59424;SDS011;45231;44.826;20.312;2022-10-13T04:09:31;120.80;;;65.85;;
59424;SDS011;45231;44.826;20.312;2022-10-13T04:11:57;130.95;;;69.65;;
59424;SDS011;45231;44.826;20.312;2022-10-13T04:14:24;109.10;;;65.68;;
59424;SDS011;45231;44.826;20.312;2022-10-13T04:16:54;102.85;;;60.03;;
59424;SDS011;45231;44.826;20.312;2022-10-13T04:19:20;105.30;;;63.38;;
59424;SDS011;45231;44.826;20.312;2022-10-13T04:21:46;115.03;;;65.10;;
59424;SDS011;45231;44.826;20.312;2022-10-13T04:24:14;246.95;;;80.15;;
59424;SDS011;45231;44.826;20.312;2022-10-13T04:26:42;169.80;;;76.35;;
59424;SDS011;45231;44.826;20.312;2022-10-13T04:29:08;127.07;;;70.85;;
59424;SDS011;45231;44.826;20.312;2022-10-13T04:34:01;146.85;;;73.13;;
59424;SDS011;45231;44.826;20.312;2022-10-13T04:36:27;117.20;;;69.28;;
59424;SDS011;45231;44.826;20.312;2022-10-13T04:38:53;143.35;;;74.80;;
59424;SDS011;45231;44.826;20.312;2022-10-13T04:41:19;124.82;;;73.95;;
59424;SDS011;45231;44.826;20.312;2022-10-13T04:43:46;207.30;;;80.00;;
59424;SDS011;45231;44.826;20.312;2022-10-13T04:46:13;132.07;;;75.38;;
59424;SDS011;45231;44.826;20.312;2022-10-13T04:48:40;173.73;;;80.63;;
59424;SDS011;45231;44.826;20.312;2022-10-13T04:51:08;194.60;;;76.53;;
59424;SDS011;45231;44.826;20.312;2022-10-13T04:53:34;283.85;;;85.22;;
59424;SDS011;45231;44.826;20.312;2022-10-13T04:56:01;118.57;;;75.80;;
59424;SDS011;45231;44.826;20.312;2022-10-13T04:58:28;148.80;;;75.22;;
59424;SDS011;45231;44.826;20.312;2022-10-13T05:00:54;111.63;;;73.63;;
59424;SDS011;45231;44.826;20.312;2022-10-13T05:03:20;154.30;;;72.97;;
59424;SDS011;45231;44.826;20.312;2022-10-13T05:05:46;141.40;;;79.53;;
59424;SDS011;45231;44.826;20.312;2022-10-13T05:08:12;150.02;;;77.47;;
59424;SDS011;45231;44.826;20.312;2022-10-13T05:10:38;122.65;;;76.88;;
59424;SDS011;45231;44.826;20.312;2022-10-13T05:13:04;170.35;;;81.47;;
59424;SDS011;45231;44.826;20.312;2022-10-13T05:15:30;142.95;;;76.45;;
59424;SDS011;45231;44.826;20.312;2022-10-13T05:17:57;117.70;;;67.07;;
59424;SDS011;45231;44.826;20.312;2022-10-13T05:20:23;160.73;;;71.13;;
59424;SDS011;45231;44.826;20.312;2022-10-13T05:22:49;139.48;;;65.20;;
59424;SDS011;45231;44.826;20.312;2022-10-13T05:25:15;185.60;;;77.35;;
59424;SDS011;45231;44.826;20.312;2022-10-13T05:27:42;152.80;;;76.35;;
59424;SDS011;45231;44.826;20.312;2022-10-13T05:30:10;133.50;;;75.78;;
59424;SDS011;45231;44.826;20.312;2022-10-13T05:32:36;119.95;;;71.00;;
59424;SDS011;45231;44.826;20.312;2022-10-13T05:35:02;100.18;;;62.90;;
59424;SDS011;45231;44.826;20.312;2022-10-13T05:37:29;141.85;;;66.95;;
59424;SDS011;45231;44.826;20.312;2022-10-13T05:39:55;132.77;;;72.43;;
59424;SDS011;45231;44.826;20.312;2022-10-13T05:42:21;146.35;;;80.75;;
59424;SDS011;45231;44.826;20.312;2022-10-13T05:44:47;125.38;;;74.97;;
59424;SDS011;45231;44.826;20.312;2022-10-13T05:47:13;219.10;;;93.80;;
59424;SDS011;45231;44.826;20.312;2022-10-13T05:49:39;166.85;;;83.60;;
59424;SDS011;45231;44.826;20.312;2022-10-13T05:52:06;155.10;;;83.72;;
59424;SDS011;45231;44.826;20.312;2022-10-13T05:54:34;152.23;;;87.38;;
59424;SDS011;45231;44.826;20.312;2022-10-13T05:59:34;181.02;;;77.50;;
59424;SDS011;45231;44.826;20.312;2022-10-13T06:02:02;220.65;;;83.43;;
59424;SDS011;45231;44.826;20.312;2022-10-13T06:04:30;367.63;;;102.10;;
59424;SDS011;45231;44.826;20.312;2022-10-13T06:06:57;289.40;;;98.38;;
59424;SDS011;45231;44.826;20.312;2022-10-13T06:09:23;295.63;;;105.65;;
59424;SDS011;45231;44.826;20.312;2022-10-13T06:11:49;374.83;;;110.90;;
59424;SDS011;45231;44.826;20.312;2022-10-13T06:14:15;274.70;;;104.82;;
59424;SDS011;45231;44.826;20.312;2022-10-13T06:16:41;212.20;;;100.80;;
59424;SDS011;45231;44.826;20.312;2022-10-13T06:19:07;283.30;;;105.93;;
59424;SDS011;45231;44.826;20.312;2022-10-13T06:21:33;252.52;;;101.85;;
59424;SDS011;45231;44.826;20.312;2022-10-13T06:26:26;218.38;;;103.10;;
59424;SDS011;45231;44.826;20.312;2022-10-13T06:28:52;223.27;;;101.18;;
59424;SDS011;45231;44.826;20.312;2022-10-13T06:31:18;208.68;;;101.90;;
59424;SDS011;45231;44.826;20.312;2022-10-13T06:33:44;227.05;;;101.00;;
59424;SDS011;45231;44.826;20.312;2022-10-13T06:36:10;253.00;;;101.70;;
59424;SDS011;45231;44.826;20.312;2022-10-13T06:38:36;196.23;;;101.95;;
59424;SDS011;45231;44.826;20.312;2022-10-13T06:41:02;334.27;;;115.00;;
59424;SDS011;45231;44.826;20.312;2022-10-13T06:43:29;218.13;;;107.18;;
59424;SDS011;45231;44.826;20.312;2022-10-13T06:46:01;274.02;;;115.82;;
59424;SDS011;45231;44.826;20.312;2022-10-13T06:48:27;269.10;;;111.47;;
59424;SDS011;45231;44.826;20.312;2022-10-13T06:50:53;239.35;;;109.53;;
59424;SDS011;45231;44.826;20.312;2022-10-13T06:53:19;214.07;;;108.93;;
59424;SDS011;45231;44.826;20.312;2022-10-13T06:55:45;237.90;;;108.68;;
59424;SDS011;45231;44.826;20.312;2022-10-13T06:58:12;244.70;;;108.95;;
59424;SDS011;45231;44.826;20.312;2022-10-13T07:00:39;239.27;;;110.18;;
59424;SDS011;45231;44.826;20.312;2022-10-13T07:03:05;207.40;;;108.82;;
59424;SDS011;45231;44.826;20.312;2022-10-13T07:05:31;174.95;;;100.93;;
59424;SDS011;45231;44.826;20.312;2022-10-13T07:07:57;215.68;;;107.35;;
59424;SDS011;45231;44.826;20.312;2022-10-13T07:10:23;174.82;;;102.95;;
59424;SDS011;45231;44.826;20.312;2022-10-13T07:12:49;195.82;;;104.28;;
59424;SDS011;45231;44.826;20.312;2022-10-13T07:15:15;199.55;;;106.13;;
59424;SDS011;45231;44.826;20.312;2022-10-13T07:17:41;169.30;;;101.30;;
59424;SDS011;45231;44.826;20.312;2022-10-13T07:20:07;166.02;;;98.90;;
59424;SDS011;45231;44.826;20.312;2022-10-13T07:22:34;158.13;;;98.05;;
59424;SDS011;45231;44.826;20.312;2022-10-13T07:25:00;177.60;;;100.82;;
59424;SDS011;45231;44.826;20.312;2022-10-13T07:27:26;175.85;;;101.57;;
59424;SDS011;45231;44.826;20.312;2022-10-13T07:29:52;163.43;;;101.40;;
59424;SDS011;45231;44.826;20.312;2022-10-13T07:32:18;159.25;;;100.68;;
59424;SDS011;45231;44.826;20.312;2022-10-13T07:34:44;174.05;;;105.07;;
59424;SDS011;45231;44.826;20.312;2022-10-13T07:37:10;200.85;;;101.70;;
59424;SDS011;45231;44.826;20.312;2022-10-13T07:39:36;185.23;;;102.13;;
59424;SDS011;45231;44.826;20.312;2022-10-13T07:42:02;167.90;;;101.57;;
59424;SDS011;45231;44.826;20.312;2022-10-13T07:44:28;162.10;;;97.93;;
59424;SDS011;45231;44.826;20.312;2022-10-13T07:46:54;153.48;;;96.32;;
59424;SDS011;45231;44.826;20.312;2022-10-13T07:49:20;162.52;;;95.28;;
59424;SDS011;45231;44.826;20.312;2022-10-13T07:51:46;164.85;;;99.72;;
59424;SDS011;45231;44.826;20.312;2022-10-13T07:54:13;166.75;;;99.90;;
59424;SDS011;45231;44.826;20.312;2022-10-13T07:56:39;159.13;;;94.03;;
59424;SDS011;45231;44.826;20.312;2022-10-13T07:59:05;159.13;;;98.75;;
59424;SDS011;45231;44.826;20.312;2022-10-13T08:01:31;170.57;;;101.28;;
59424;SDS011;45231;44.826;20.312;2022-10-13T08:03:57;152.32;;;93.40;;
59424;SDS011;45231;44.826;20.312;2022-10-13T08:06:23;158.15;;;96.68;;
59424;SDS011;45231;44.826;20.312;2022-10-13T08:08:49;155.50;;;95.10;;
59424;SDS011;45231;44.826;20.312;2022-10-13T08:11:16;161.35;;;98.43;;
59424;SDS011;45231;44.826;20.312;2022-10-13T08:13:46;131.30;;;85.50;;
59424;SDS011;45231;44.826;20.312;2022-10-13T08:16:12;137.80;;;89.07;;
59424;SDS011;45231;44.826;20.312;2022-10-13T08:18:38;165.95;;;92.90;;
59424;SDS011;45231;44.826;20.312;2022-10-13T08:21:04;145.20;;;89.75;;
59424;SDS011;45231;44.826;20.312;2022-10-13T08:23:30;131.93;;;88.15;;
59424;SDS011;45231;44.826;20.312;2022-10-13T08:26:00;125.20;;;84.70;;
59424;SDS011;45231;44.826;20.312;2022-10-13T08:28:27;117.25;;;82.55;;
59424;SDS011;45231;44.826;20.312;2022-10-13T08:30:53;124.63;;;82.63;;
59424;SDS011;45231;44.826;20.312;2022-10-13T08:33:21;125.22;;;82.72;;
59424;SDS011;45231;44.826;20.312;2022-10-13T08:35:47;121.15;;;85.45;;
59424;SDS011;45231;44.826;20.312;2022-10-13T08:38:14;108.15;;;81.03;;
59424;SDS011;45231;44.826;20.312;2022-10-13T08:40:40;107.35;;;76.63;;
59424;SDS011;45231;44.826;20.312;2022-10-13T08:43:10;105.40;;;73.55;;
59424;SDS011;45231;44.826;20.312;2022-10-13T08:45:37;98.57;;;70.07;;
59424;SDS011;45231;44.826;20.312;2022-10-13T08:48:10;97.55;;;70.72;;
59424;SDS011;45231;44.826;20.312;2022-10-13T08:50:40;92.60;;;67.30;;
59424;SDS011;45231;44.826;20.312;2022-10-13T08:53:14;93.63;;;66.60;;
59424;SDS011;45231;44.826;20.312;2022-10-13T08:55:45;86.38;;;66.80;;
59424;SDS011;45231;44.826;20.312;2022-10-13T09:00:44;77.63;;;60.13;;
59424;SDS011;45231;44.826;20.312;2022-10-13T09:05:55;78.75;;;60.25;;
59424;SDS011;45231;44.826;20.312;2022-10-13T09:08:23;75.15;;;58.78;;
59424;SDS011;45231;44.826;20.312;2022-10-13T09:10:50;54.13;;;38.70;;
59424;SDS011;45231;44.826;20.312;2022-10-13T09:13:17;75.72;;;55.33;;
59424;SDS011;45231;44.826;20.312;2022-10-13T09:15:44;70.65;;;54.33;;
59424;SDS011;45231;44.826;20.312;2022-10-13T09:18:11;72.18;;;52.47;;
59424;SDS011;45231;44.826;20.312;2022-10-13T09:20:38;68.22;;;51.15;;
59424;SDS011;45231;44.826;20.312;2022-10-13T09:23:18;70.30;;;53.45;;
59424;SDS011;45231;44.826;20.312;2022-10-13T09:25:45;73.05;;;56.13;;
59424;SDS011;45231;44.826;20.312;2022-10-13T09:28:17;70.70;;;56.42;;
59424;SDS011;45231;44.826;20.312;2022-10-13T09:30:45;62.15;;;47.70;;
59424;SDS011;45231;44.826;20.312;2022-10-13T09:35:45;65.07;;;50.25;;
59424;SDS011;45231;44.826;20.312;2022-10-13T09:38:15;60.17;;;48.78;;
59424;SDS011;45231;44.826;20.312;2022-10-13T09:40:41;74.90;;;56.20;;
59424;SDS011;45231;44.826;20.312;2022-10-13T09:43:28;62.33;;;50.25;;
59424;SDS011;45231;44.826;20.312;2022-10-13T09:45:55;73.37;;;57.83;;
59424;SDS011;45231;44.826;20.312;2022-10-13T09:48:22;68.85;;;57.20;;
59424;SDS011;45231;44.826;20.312;2022-10-13T09:50:51;68.07;;;52.42;;
59424;SDS011;45231;44.826;20.312;2022-10-13T09:53:29;65.13;;;54.53;;
59424;SDS011;45231;44.826;20.312;2022-10-13T09:58:42;75.22;;;53.35;;
59424;SDS011;45231;44.826;20.312;2022-10-13T10:01:13;65.05;;;50.58;;
59424;SDS011;45231;44.826;20.312;2022-10-13T10:03:42;75.85;;;54.38;;
59424;SDS011;45231;44.826;20.312;2022-10-13T10:11:01;67.43;;;54.08;;
59424;SDS011;45231;44.826;20.312;2022-10-13T10:13:28;75.18;;;59.42;;
59424;SDS011;45231;44.826;20.312;2022-10-13T10:18:31;62.03;;;50.35;;
59424;SDS011;45231;44.826;20.312;2022-10-13T10:21:09;64.07;;;53.38;;
59424;SDS011;45231;44.826;20.312;2022-10-13T10:26:42;70.75;;;54.85;;
59424;SDS011;45231;44.826;20.312;2022-10-13T10:29:21;64.10;;;52.28;;
59424;SDS011;45231;44.826;20.312;2022-10-13T10:36:56;49.80;;;40.90;;
59424;SDS011;45231;44.826;20.312;2022-10-13T10:39:46;53.65;;;43.72;;
59424;SDS011;45231;44.826;20.312;2022-10-13T10:42:24;60.67;;;48.42;;
59424;SDS011;45231;44.826;20.312;2022-10-13T10:44:57;55.90;;;42.80;;
59424;SDS011;45231;44.826;20.312;2022-10-13T11:00:19;50.00;;;38.75;;
59424;SDS011;45231;44.826;20.312;2022-10-13T11:05:18;45.83;;;34.90;;
59424;SDS011;45231;44.826;20.312;2022-10-13T11:15:28;35.83;;;29.13;;
59424;SDS011;45231;44.826;20.312;2022-10-13T11:17:55;38.83;;;29.85;;
59424;SDS011;45231;44.826;20.312;2022-10-13T11:27:54;30.30;;;26.90;;
59424;SDS011;45231;44.826;20.312;2022-10-13T11:32:46;27.98;;;21.92;;
59424;SDS011;45231;44.826;20.312;2022-10-13T11:35:22;29.77;;;21.77;;
59424;SDS011;45231;44.826;20.312;2022-10-13T11:49:02;26.30;;;18.83;;
59424;SDS011;45231;44.826;20.312;2022-10-13T11:59:16;24.45;;;19.42;;
59424;SDS011;45231;44.826;20.312;2022-10-13T12:01:43;24.33;;;18.10;;
59424;SDS011;45231;44.826;20.312;2022-10-13T12:04:12;23.52;;;19.08;;
59424;SDS011;45231;44.826;20.312;2022-10-13T12:06:39;22.27;;;18.27;;
59424;SDS011;45231;44.826;20.312;2022-10-13T12:09:14;24.38;;;18.48;;
59424;SDS011;45231;44.826;20.312;2022-10-13T12:11:41;22.13;;;18.30;;
59424;SDS011;45231;44.826;20.312;2022-10-13T12:14:17;25.00;;;19.10;;
59424;SDS011;45231;44.826;20.312;2022-10-13T12:16:58;24.00;;;18.60;;
59424;SDS011;45231;44.826;20.312;2022-10-13T12:19:26;22.75;;;19.80;;
59424;SDS011;45231;44.826;20.312;2022-10-13T12:21:54;26.05;;;19.70;;
59424;SDS011;45231;44.826;20.312;2022-10-13T12:24:23;23.00;;;19.13;;
59424;SDS011;45231;44.826;20.312;2022-10-13T12:26:49;23.35;;;19.08;;
59424;SDS011;45231;44.826;20.312;2022-10-13T12:29:15;26.00;;;19.10;;
59424;SDS011;45231;44.826;20.312;2022-10-13T12:31:51;22.45;;;17.48;;
59424;SDS011;45231;44.826;20.312;2022-10-13T12:34:19;23.05;;;18.40;;
59424;SDS011;45231;44.826;20.312;2022-10-13T12:36:50;27.67;;;19.33;;
59424;SDS011;45231;44.826;20.312;2022-10-13T12:39:17;23.63;;;17.75;;
59424;SDS011;45231;44.826;20.312;2022-10-13T12:41:44;23.10;;;18.10;;
59424;SDS011;45231;44.826;20.312;2022-10-13T12:44:12;25.65;;;19.15;;
59424;SDS011;45231;44.826;20.312;2022-10-13T12:46:42;28.58;;;19.85;;
59424;SDS011;45231;44.826;20.312;2022-10-13T12:49:15;23.83;;;17.73;;
59424;SDS011;45231;44.826;20.312;2022-10-13T12:51:42;25.33;;;18.00;;
59424;SDS011;45231;44.826;20.312;2022-10-13T12:54:29;22.92;;;18.48;;
59424;SDS011;45231;44.826;20.312;2022-10-13T12:56:57;21.15;;;17.25;;
59424;SDS011;45231;44.826;20.312;2022-10-13T12:59:24;22.98;;;17.05;;
59424;SDS011;45231;44.826;20.312;2022-10-13T13:01:51;26.40;;;17.67;;
59424;SDS011;45231;44.826;20.312;2022-10-13T13:04:27;29.73;;;17.08;;
59424;SDS011;45231;44.826;20.312;2022-10-13T13:06:54;24.70;;;16.25;;
59424;SDS011;45231;44.826;20.312;2022-10-13T13:09:30;22.25;;;16.10;;
59424;SDS011;45231;44.826;20.312;2022-10-13T13:14:37;22.75;;;16.85;;
59424;SDS011;45231;44.826;20.312;2022-10-13T13:17:05;25.85;;;16.90;;
59424;SDS011;45231;44.826;20.312;2022-10-13T13:19:34;23.13;;;16.30;;
59424;SDS011;45231;44.826;20.312;2022-10-13T13:22:01;25.98;;;18.60;;
59424;SDS011;45231;44.826;20.312;2022-10-13T13:24:27;24.77;;;17.35;;
59424;SDS011;45231;44.826;20.312;2022-10-13T13:26:54;25.73;;;17.25;;
59424;SDS011;45231;44.826;20.312;2022-10-13T13:29:20;19.80;;;16.35;;
59424;SDS011;45231;44.826;20.312;2022-10-13T13:31:46;21.92;;;17.27;;
59424;SDS011;45231;44.826;20.312;2022-10-13T13:34:12;22.33;;;16.95;;
59424;SDS011;45231;44.826;20.312;2022-10-13T13:36:38;20.20;;;16.75;;
59424;SDS011;45231;44.826;20.312;2022-10-13T13:41:30;25.77;;;17.42;;
59424;SDS011;45231;44.826;20.312;2022-10-13T13:43:56;22.55;;;16.90;;
59424;SDS011;45231;44.826;20.312;2022-10-13T13:46:23;21.67;;;16.75;;
59424;SDS011;45231;44.826;20.312;2022-10-13T13:48:49;22.38;;;16.60;;
59424;SDS011;45231;44.826;20.312;2022-10-13T13:51:16;21.75;;;16.67;;
59424;SDS011;45231;44.826;20.312;2022-10-13T13:53:42;24.65;;;16.98;;
59424;SDS011;45231;44.826;20.312;2022-10-13T13:56:12;19.48;;;15.65;;
59424;SDS011;45231;44.826;20.312;2022-10-13T13:58:38;22.70;;;16.67;;
59424;SDS011;45231;44.826;20.312;2022-10-13T14:01:04;19.90;;;15.73;;
59424;SDS011;45231;44.826;20.312;2022-10-13T14:03:30;20.85;;;15.90;;
59424;SDS011;45231;44.826;20.312;2022-10-13T14:05:56;20.52;;;15.90;;
59424;SDS011;45231;44.826;20.312;2022-10-13T14:08:22;23.50;;;15.98;;
59424;SDS011;45231;44.826;20.312;2022-10-13T14:10:48;18.75;;;15.45;;
59424;SDS011;45231;44.826;20.312;2022-10-13T14:13:14;22.98;;;17.20;;
59424;SDS011;45231;44.826;20.312;2022-10-13T14:15:40;19.15;;;16.50;;
59424;SDS011;45231;44.826;20.312;2022-10-13T14:18:06;20.73;;;15.65;;
59424;SDS011;45231;44.826;20.312;2022-10-13T14:20:32;22.92;;;16.73;;
59424;SDS011;45231;44.826;20.312;2022-10-13T14:22:58;21.00;;;15.95;;
59424;SDS011;45231;44.826;20.312;2022-10-13T14:25:24;21.80;;;16.20;;
59424;SDS011;45231;44.826;20.312;2022-10-13T14:27:50;20.38;;;15.52;;
59424;SDS011;45231;44.826;20.312;2022-10-13T14:30:17;26.20;;;15.90;;
59424;SDS011;45231;44.826;20.312;2022-10-13T14:32:43;20.45;;;15.43;;
59424;SDS011;45231;44.826;20.312;2022-10-13T14:35:09;20.52;;;16.08;;
59424;SDS011;45231;44.826;20.312;2022-10-13T14:37:35;22.42;;;16.40;;
59424;SDS011;45231;44.826;20.312;2022-10-13T14:40:01;24.23;;;16.27;;
59424;SDS011;45231;44.826;20.312;2022-10-13T14:42:27;21.85;;;15.25;;
59424;SDS011;45231;44.826;20.312;2022-10-13T14:44:53;20.17;;;15.23;;
59424;SDS011;45231;44.826;20.312;2022-10-13T14:47:19;24.45;;;15.73;;
59424;SDS011;45231;44.826;20.312;2022-10-13T14:49:45;20.80;;;15.07;;
59424;SDS011;45231;44.826;20.312;2022-10-13T14:52:11;17.15;;;14.80;;
59424;SDS011;45231;44.826;20.312;2022-10-13T14:54:37;21.70;;;15.13;;
59424;SDS011;45231;44.826;20.312;2022-10-13T14:57:04;18.92;;;14.60;;
59424;SDS011;45231;44.826;20.312;2022-10-13T14:59:32;21.40;;;15.40;;
59424;SDS011;45231;44.826;20.312;2022-10-13T15:02:02;21.90;;;14.35;;
59424;SDS011;45231;44.826;20.312;2022-10-13T15:04:28;21.70;;;14.55;;
59424;SDS011;45231;44.826;20.312;2022-10-13T15:06:54;21.73;;;14.10;;
59424;SDS011;45231;44.826;20.312;2022-10-13T15:09:20;18.75;;;14.05;;
59424;SDS011;45231;44.826;20.312;2022-10-13T15:11:46;18.05;;;14.52;;
59424;SDS011;45231;44.826;20.312;2022-10-13T15:14:12;20.70;;;14.32;;
59424;SDS011;45231;44.826;20.312;2022-10-13T15:16:39;17.95;;;14.05;;
59424;SDS011;45231;44.826;20.312;2022-10-13T15:19:05;21.35;;;14.80;;
59424;SDS011;45231;44.826;20.312;2022-10-13T15:21:31;19.60;;;14.63;;
59424;SDS011;45231;44.826;20.312;2022-10-13T15:23:57;22.25;;;14.85;;
59424;SDS011;45231;44.826;20.312;2022-10-13T15:26:23;23.00;;;15.48;;
59424;SDS011;45231;44.826;20.312;2022-10-13T15:28:49;19.27;;;15.68;;
59424;SDS011;45231;44.826;20.312;2022-10-13T15:31:17;20.92;;;15.15;;
59424;SDS011;45231;44.826;20.312;2022-10-13T15:33:52;19.33;;;14.82;;
59424;SDS011;45231;44.826;20.312;2022-10-13T15:36:19;26.02;;;15.43;;
59424;SDS011;45231;44.826;20.312;2022-10-13T15:38:45;22.60;;;15.95;;
59424;SDS011;45231;44.826;20.312;2022-10-13T15:43:38;21.65;;;16.05;;
59424;SDS011;45231;44.826;20.312;2022-10-13T15:46:05;20.40;;;15.38;;
59424;SDS011;45231;44.826;20.312;2022-10-13T15:48:31;22.75;;;15.35;;
59424;SDS011;45231;44.826;20.312;2022-10-13T15:53:24;25.35;;;15.15;;
59424;SDS011;45231;44.826;20.312;2022-10-13T15:55:50;21.50;;;16.13;;
59424;SDS011;45231;44.826;20.312;2022-10-13T15:58:16;26.33;;;16.92;;
59424;SDS011;45231;44.826;20.312;2022-10-13T16:00:42;22.17;;;16.40;;
59424;SDS011;45231;44.826;20.312;2022-10-13T16:03:12;26.35;;;18.05;;
59424;SDS011;45231;44.826;20.312;2022-10-13T16:05:39;26.23;;;17.77;;